Time;durP1;ratioP1;P1;durP2;ratioP2;P2;SDS_P1;SDS_P2;PMS_P1;PMS_P2;Temp;Humidity;BMP_temperature;BMP_pressure;BME280_temperature;BME280_humidity;BME280_pressure;Samples;Min_cycle;Max_cycle;Signal;HPM_P1;HPM_P2
2022/07/20 00:01:39;;;;;;;;;19.67;16.33;;;;;29.83;65.39;101017.94;6280968;22;45351;-96
2022/07/20 00:04:04;;;;;;;;;19.67;18.00;;;;;29.81;64.82;101030.63;6285815;22;45266;-96
2022/07/20 00:06:30;;;;;;;;;21.33;18.33;;;;;29.88;64.87;101059.25;6283822;22;45226;-96
2022/07/20 00:11:40;;;;;;;;;20.33;20.00;;;;;29.75;64.31;101052.47;6317184;22;44660;-96
2022/07/20 00:14:06;;;;;;;;;20.67;16.67;;;;;29.71;64.78;101061.56;6288876;22;45246;-96
2022/07/20 00:16:34;;;;;;;;;21.33;21.00;;;;;29.66;65.15;101040.09;6316439;22;45107;-96
2022/07/20 00:19:00;;;;;;;;;22.00;20.00;;;;;29.67;65.87;101048.13;6286119;22;47034;-96
2022/07/20 00:21:26;;;;;;;;;22.67;20.33;;;;;29.52;66.20;101065.72;6287545;22;45690;-96
2022/07/20 00:23:52;;;;;;;;;20.00;19.00;;;;;29.47;67.40;101058.66;6289582;22;45191;-96
2022/07/20 00:26:17;;;;;;;;;19.67;18.67;;;;;29.46;67.20;101109.16;6317481;22;44906;-96
2022/07/20 00:28:43;;;;;;;;;20.67;19.00;;;;;29.28;67.59;101088.94;6289677;22;47239;-96
2022/07/20 00:31:08;;;;;;;;;22.67;20.00;;;;;29.15;68.37;101074.91;6291852;22;45923;-96
2022/07/20 00:33:33;;;;;;;;;20.00;19.33;;;;;29.09;70.20;101074.16;6286335;22;45373;-96
2022/07/20 00:35:59;;;;;;;;;20.00;19.00;;;;;28.84;70.41;101063.94;6281333;22;45651;-96
2022/07/20 00:38:24;;;;;;;;;19.67;19.67;;;;;28.78;72.55;101007.41;6278245;22;47906;-96
2022/07/20 00:40:50;;;;;;;;;24.33;22.67;;;;;28.59;72.12;100998.91;6279368;22;45631;-96
2022/07/20 00:43:15;;;;;;;;;22.67;20.00;;;;;28.36;72.60;100981.47;6278952;22;45313;-96
2022/07/20 00:45:41;;;;;;;;;19.33;19.00;;;;;28.18;73.68;100913.59;6278666;22;45237;-96
2022/07/20 00:48:07;;;;;;;;;20.33;18.33;;;;;28.05;76.10;100794.31;6278129;22;47994;-96
2022/07/20 00:50:32;;;;;;;;;22.00;20.00;;;;;27.83;76.30;100749.06;6303975;22;45437;-96
2022/07/20 00:52:59;;;;;;;;;21.67;20.67;;;;;27.86;76.82;100700.44;6278172;22;45239;-96
2022/07/20 00:55:25;;;;;;;;;23.00;21.00;;;;;27.83;77.18;100636.69;6277853;22;45666;-96
2022/07/20 00:57:50;;;;;;;;;28.67;25.33;;;;;27.82;78.66;100590.91;6278095;22;47947;-96
2022/07/20 01:00:16;;;;;;;;;24.25;23.50;;;;;27.76;79.10;100560.47;6304443;22;45739;-96
2022/07/20 01:02:42;;;;;;;;;30.50;28.50;;;;;27.77;81.18;100502.03;6280257;22;45476;-96
2022/07/20 01:05:13;;;;;;;;;36.75;30.75;;;;;27.72;81.56;100468.94;6279715;22;44759;-96
2022/07/20 01:07:49;;;;;;;;;40.75;33.25;;;;;27.62;82.18;100409.94;6279536;22;47583;-95
2022/07/20 01:10:16;;;;;;;;;41.75;34.50;;;;;27.59;82.69;100361.50;6278054;22;45535;-96
2022/07/20 01:12:49;;;;;;;;;42.75;35.50;;;;;27.73;83.39;100322.44;6305494;22;45521;-96
2022/07/20 01:15:15;;;;;;;;;44.00;35.25;;;;;27.65;83.83;100209.50;6278410;22;45522;-95
2022/07/20 01:17:42;;;;;;;;;43.50;35.00;;;;;27.62;84.87;100135.00;6277663;22;47209;-96
2022/07/20 01:20:13;;;;;;;;;38.75;33.50;;;;;27.64;84.57;100099.91;6303348;22;45371;-94
2022/07/20 01:22:39;;;;;;;;;42.25;35.75;;;;;27.52;85.47;100050.03;6305069;22;45264;-95
2022/07/20 01:25:04;;;;;;;;;46.25;37.00;;;;;27.67;86.80;100046.78;6276798;22;45398;-95
2022/07/20 01:27:32;;;;;;;;;41.00;35.00;;;;;27.62;87.29;100050.56;6277204;22;47099;-95
2022/07/20 01:29:58;;;;;;;;;47.00;38.00;;;;;27.59;87.05;100081.22;6276574;22;45293;-96
2022/07/20 01:32:23;;;;;;;;;43.00;35.50;;;;;27.53;87.02;100074.22;6276832;22;45511;-96
2022/07/20 01:34:48;;;;;;;;;48.25;39.00;;;;;27.44;87.26;100071.88;6277386;22;45562;-96
2022/07/20 01:37:14;;;;;;;;;42.25;35.25;;;;;27.54;87.05;100096.66;6277027;22;48247;-95
2022/07/20 01:39:39;;;;;;;;;42.50;35.00;;;;;27.61;87.46;100075.75;6276629;22;45608;-96
2022/07/20 01:42:05;;;;;;;;;43.50;36.50;;;;;27.45;87.39;100050.25;6277068;22;45254;-95
2022/07/20 01:44:30;;;;;;;;;46.25;37.75;;;;;27.51;88.04;100057.25;6302832;22;45240;-94
2022/07/20 01:46:55;;;;;;;;;44.75;37.75;;;;;27.54;88.04;100073.31;6278073;22;47522;-94
2022/07/20 01:49:22;;;;;;;;;47.00;39.00;;;;;27.60;87.45;100101.81;6303696;22;46024;-95
2022/07/20 01:51:48;;;;;;;;;47.75;38.50;;;;;27.48;87.39;100095.06;6277599;22;45721;-95
2022/07/20 01:54:13;;;;;;;;;48.50;39.75;;;;;27.57;86.95;100107.34;6277658;22;45538;-95
2022/07/20 01:56:42;;;;;;;;;51.25;39.00;;;;;27.62;87.91;100108.06;6278241;22;47069;-95
2022/07/20 01:59:08;;;;;;;;;46.75;38.00;;;;;27.48;87.62;100104.97;6278125;22;45371;-95
2022/07/20 02:01:34;;;;;;;;;42.00;36.00;;;;;27.48;87.10;100118.44;6304349;22;45226;-95
2022/07/20 02:03:59;;;;;;;;;48.50;40.25;;;;;27.42;87.24;100144.66;6278241;22;45439;-95
2022/07/20 02:06:25;;;;;;;;;49.25;39.25;;;;;27.53;87.26;100194.59;6279609;22;46941;-96
2022/07/20 02:08:50;;;;;;;;;48.00;38.50;;;;;27.48;86.95;100228.91;6284103;22;45186;-96
2022/07/20 02:11:16;;;;;;;;;47.75;39.00;;;;;27.39;87.73;100224.75;6287930;22;45191;-96
2022/07/20 02:13:41;;;;;;;;;49.75;40.50;;;;;27.45;87.78;100233.50;6284105;22;45193;-96
2022/07/20 02:16:16;;;;;;;;;47.25;40.00;;;;;27.40;88.23;100202.22;6285018;22;46844;-96
2022/07/20 02:18:52;;;;;;;;;46.50;39.25;;;;;27.42;88.23;100159.97;6282036;22;45731;-96
2022/07/20 02:21:19;;;;;;;;;50.00;41.00;;;;;27.43;88.72;100169.81;6282297;22;45227;-95
2022/07/20 02:23:45;;;;;;;;;48.75;39.00;;;;;27.30;88.45;100191.78;6286543;22;44883;-96
2022/07/20 02:26:10;;;;;;;;;45.75;37.75;;;;;27.36;89.13;100185.31;6288521;22;46978;-96
2022/07/20 02:28:36;;;;;;;;;13.00;8.75;;;;;27.33;89.37;100198.88;6287281;22;45324;-95
2022/07/20 02:31:02;;;;;;;;;48.50;39.50;;;;;27.39;89.15;100208.56;6313955;22;45295;-95
2022/07/20 02:33:28;;;;;;;;;44.75;37.50;;;;;27.38;89.07;100190.63;6313816;22;45653;-95
2022/07/20 02:35:53;;;;;;;;;45.00;38.00;;;;;27.30;89.41;100189.09;6278871;22;46881;-96
2022/07/20 02:38:19;;;;;;;;;48.75;39.75;;;;;27.25;89.24;100206.34;6280594;22;45405;-96
2022/07/20 02:40:44;;;;;;;;;47.50;39.75;;;;;27.27;89.30;100228.72;6283486;22;45874;-96
2022/07/20 02:43:10;;;;;;;;;46.75;37.75;;;;;27.13;89.24;100221.97;6281510;22;44907;-96
2022/07/20 02:45:35;;;;;;;;;45.75;39.00;;;;;27.07;89.95;100195.22;6278677;22;46757;-96
2022/07/20 02:48:03;;;;;;;;;45.75;36.50;;;;;27.04;89.66;100195.31;6281559;22;45241;-95
2022/07/20 02:50:30;;;;;;;;;47.25;39.25;;;;;27.02;89.90;100221.41;6273914;22;45178;-95
2022/07/20 02:52:56;;;;;;;;;49.50;39.25;;;;;27.06;90.04;100233.88;6273861;22;45440;-96
2022/07/20 02:55:21;;;;;;;;;47.50;39.25;;;;;27.06;89.90;100237.41;6278696;22;46930;-96
2022/07/20 02:57:46;;;;;;;;;45.25;37.75;;;;;27.05;90.47;100249.13;6278431;22;45554;-96
2022/07/20 03:00:12;;;;;;;;;49.75;39.00;;;;;27.07;90.83;100257.16;6275909;22;45364;-96
2022/07/20 03:02:37;;;;;;;;;46.50;38.75;;;;;27.03;90.74;100261.78;6275747;22;45350;-95
2022/07/20 03:05:03;;;;;;;;;49.75;40.25;;;;;27.00;91.38;100270.81;6274640;22;47184;-96
2022/07/20 03:07:29;;;;;;;;;51.00;40.75;;;;;27.04;91.72;100293.13;6274340;22;45376;-96
2022/07/20 03:09:54;;;;;;;;;47.00;38.00;;;;;27.05;91.95;100289.53;6272778;22;45853;-96
2022/07/20 03:12:19;;;;;;;;;49.00;41.50;;;;;26.99;92.08;100279.81;6272802;22;45402;-96
2022/07/20 03:14:45;;;;;;;;;47.25;40.00;;;;;27.04;92.41;100297.63;6272772;22;48548;-96
2022/07/20 03:17:10;;;;;;;;;50.00;39.50;;;;;27.03;92.38;100295.88;6273607;22;45164;-96
2022/07/20 03:19:35;;;;;;;;;46.75;39.00;;;;;26.96;91.72;100305.94;6277486;22;45370;-96
2022/07/20 03:22:01;;;;;;;;;51.75;39.75;;;;;27.09;92.59;100336.97;6275928;22;45190;-96
2022/07/20 03:24:26;;;;;;;;;49.75;41.00;;;;;27.02;92.67;100326.44;6273108;22;46886;-96
2022/07/20 03:26:51;;;;;;;;;51.75;41.50;;;;;27.02;92.70;100291.41;6275874;22;45166;-96
2022/07/20 03:29:17;;;;;;;;;50.00;40.75;;;;;26.93;92.93;100279.16;6278346;22;44753;-96
2022/07/20 03:31:43;;;;;;;;;48.25;39.25;;;;;27.02;92.87;100302.19;6274894;22;45442;-96
2022/07/20 03:34:09;;;;;;;;;47.75;39.75;;;;;26.86;92.67;100270.34;6303970;22;47577;-96
2022/07/20 03:36:34;;;;;;;;;47.25;40.00;;;;;26.87;93.24;100274.81;6302517;22;45518;-96
2022/07/20 03:38:59;;;;;;;;;51.75;41.00;;;;;26.91;93.51;100273.78;6275057;22;45227;-96
2022/07/20 03:41:25;;;;;;;;;48.75;39.00;;;;;26.92;93.39;100280.94;6276346;22;45396;-96
2022/07/20 03:43:50;;;;;;;;;50.25;39.75;;;;;26.84;93.76;100270.41;6275866;22;46925;-96
2022/07/20 03:46:17;;;;;;;;;46.25;38.75;;;;;26.91;93.45;100308.78;6279657;22;45422;-96
2022/07/20 03:48:44;;;;;;;;;48.75;40.00;;;;;27.02;93.64;100299.50;6272972;22;45396;-95
2022/07/20 03:51:09;;;;;;;;;50.00;40.00;;;;;26.96;94.96;100269.13;6273894;22;45709;-96
2022/07/20 03:53:35;;;;;;;;;49.50;40.00;;;;;26.79;96.46;100256.22;6274790;22;48125;-96
2022/07/20 03:56:00;;;;;;;;;46.25;38.75;;;;;26.69;98.36;100231.38;6275990;22;45138;-96
2022/07/20 03:58:27;;;;;;;;;47.75;39.25;;;;;26.63;100.00;100216.31;6279053;22;45267;-96
2022/07/20 04:00:52;;;;;;;;;48.00;40.00;;;;;26.47;100.00;100161.22;6288472;22;45256;-96
2022/07/20 04:03:18;;;;;;;;;49.75;41.50;;;;;26.29;100.00;100176.94;6277934;22;47353;-96
2022/07/20 04:05:43;;;;;;;;;48.00;38.25;;;;;26.10;100.00;100140.72;6304604;22;44709;-96
2022/07/20 04:08:08;;;;;;;;;49.25;38.00;;;;;26.02;100.00;100121.25;6280772;22;45187;-96
2022/07/20 04:10:35;;;;;;;;;48.50;41.75;;;;;25.77;100.00;100073.59;6285466;22;44753;-96
2022/07/20 04:13:05;;;;;;;;;48.50;39.00;;;;;25.62;100.00;100053.34;6321119;22;47698;-96
2022/07/20 06:19:41;;;;;;;;;24.50;23.50;;;;;23.82;100.00;99863.00;6252801;22;45306;31
2022/07/20 06:22:06;;;;;;;;;24.00;22.33;;;;;23.73;100.00;99854.31;6234642;22;46321;-88
2022/07/20 06:24:31;;;;;;;;;22.00;21.33;;;;;23.81;100.00;99904.13;6300730;22;45305;-85
2022/07/20 06:26:56;;;;;;;;;26.00;24.67;;;;;23.76;100.00;99920.31;6301824;22;45247;-87
2022/07/20 06:29:22;;;;;;;;;22.00;20.67;;;;;23.74;100.00;99957.84;6299003;22;52697;-84
2022/07/20 06:31:47;;;;;;;;;24.33;23.00;;;;;23.67;100.00;99977.66;6301787;22;45395;-84
2022/07/20 06:34:13;;;;;;;;;23.33;20.67;;;;;23.65;100.00;99996.44;6301234;22;59250;-87
2022/07/20 06:36:38;;;;;;;;;25.33;23.33;;;;;23.64;100.00;99999.13;6302113;22;45266;-86
2022/07/20 06:39:04;;;;;;;;;20.33;19.67;;;;;23.55;100.00;100027.00;6301347;22;45635;-87
2022/07/20 06:41:29;;;;;;;;;20.33;20.33;;;;;23.53;100.00;100018.09;6303096;22;45251;-86
2022/07/20 06:43:54;;;;;;;;;19.00;19.00;;;;;23.51;100.00;100006.53;6302056;22;48640;-89
2022/07/20 06:46:20;;;;;;;;;20.67;18.33;;;;;23.47;100.00;100015.53;6300757;22;48148;-85
2022/07/20 06:48:45;;;;;;;;;22.67;20.00;;;;;23.44;100.00;100022.72;6300742;22;45284;-82
2022/07/20 06:51:10;;;;;;;;;19.00;19.00;;;;;23.38;100.00;100001.41;6296623;22;45410;-81
2022/07/20 06:53:36;;;;;;;;;22.67;19.67;;;;;23.32;100.00;100012.25;6296666;22;58065;-81
2022/07/20 06:56:01;;;;;;;;;22.33;20.00;;;;;23.28;100.00;100016.78;6301665;22;53966;-81
2022/07/20 06:58:26;;;;;;;;;14.33;13.33;;;;;23.21;100.00;100010.69;6300376;22;50331;-88
2022/07/20 07:00:52;;;;;;;;;18.00;17.00;;;;;23.21;100.00;100005.31;6298537;22;45936;-88
2022/07/20 07:03:18;;;;;;;;;22.33;20.33;;;;;23.21;100.00;100005.31;6300653;22;45519;-89
2022/07/20 07:05:43;;;;;;;;;21.67;20.00;;;;;23.18;100.00;100008.06;6300444;22;63542;-89
2022/07/20 07:08:09;;;;;;;;;25.33;18.67;;;;;23.18;100.00;100023.22;6301359;22;49266;-89
2022/07/20 07:10:34;;;;;;;;;17.67;17.00;;;;;23.15;100.00;100032.19;6299478;22;45283;-89
2022/07/20 07:12:59;;;;;;;;;23.33;19.67;;;;;23.09;100.00;100011.78;6301795;22;45338;-89
2022/07/20 07:15:25;;;;;;;;;22.00;19.67;;;;;23.05;100.00;100015.44;6296963;22;45631;-89
2022/07/20 07:17:50;;;;;;;;;20.67;17.33;;;;;23.03;100.00;100011.03;6301048;22;45209;-86
2022/07/20 07:20:15;;;;;;;;;17.67;17.00;;;;;22.97;100.00;100023.59;6300556;22;49504;-89
2022/07/20 07:22:41;;;;;;;;;21.00;20.00;;;;;22.94;100.00;100038.81;6301287;22;45393;-87
2022/07/20 07:25:07;;;;;;;;;21.67;20.33;;;;;22.90;100.00;100035.31;6298955;22;51548;-86
2022/07/20 07:27:32;;;;;;;;;17.33;15.33;;;;;22.85;100.00;100011.34;6298878;22;45323;-87
2022/07/20 07:29:58;;;;;;;;;19.33;18.33;;;;;22.81;100.00;100003.38;6301103;22;45302;-89
2022/07/20 07:32:23;;;;;;;;;25.33;22.67;;;;;22.74;100.00;99984.75;6301193;22;45508;-91
2022/07/20 07:34:49;;;;;;;;;23.67;21.67;;;;;22.65;100.00;99974.22;6298825;22;48573;-91
2022/07/20 07:37:14;;;;;;;;;22.00;21.00;;;;;22.65;100.00;99990.25;6299028;22;45439;-91
2022/07/20 07:39:39;;;;;;;;;24.33;21.00;;;;;22.64;100.00;99994.72;6297276;22;53528;-91
2022/07/20 07:42:05;;;;;;;;;22.00;19.00;;;;;22.66;100.00;100006.25;6299056;22;56823;-90
2022/07/20 07:44:30;;;;;;;;;20.67;20.00;;;;;22.70;100.00;100031.22;6298848;22;46591;-92
2022/07/20 07:46:55;;;;;;;;;22.00;20.33;;;;;22.80;100.00;100074.72;6300946;22;47762;-90
2022/07/20 07:49:21;;;;;;;;;24.67;22.33;;;;;22.89;100.00;100076.34;6299223;22;45501;-90
2022/07/20 07:51:46;;;;;;;;;22.67;20.00;;;;;22.98;100.00;100069.97;6300805;22;45397;-91
2022/07/20 07:54:11;;;;;;;;;21.67;20.67;;;;;23.15;100.00;100071.44;6300277;22;45393;-89
2022/07/20 07:56:37;;;;;;;;;21.33;20.00;;;;;23.24;100.00;100062.38;6299753;22;45668;-90
2022/07/20 07:59:03;;;;;;;;;23.00;21.00;;;;;23.39;100.00;100064.78;6300846;22;45437;-89
2022/07/20 08:01:28;;;;;;;;;21.33;20.67;;;;;23.51;100.00;100057.44;6298886;22;45376;-88
2022/07/20 08:03:54;;;;;;;;;23.67;20.00;;;;;23.58;100.00;100064.44;6300339;22;45984;-88
2022/07/20 08:06:19;;;;;;;;;23.33;20.67;;;;;23.62;100.00;100079.53;6301542;22;45253;-88
2022/07/20 08:08:45;;;;;;;;;20.00;18.67;;;;;23.69;100.00;100079.41;6299991;22;45670;-88
2022/07/20 08:11:10;;;;;;;;;23.67;22.00;;;;;23.73;100.00;100091.84;6301667;22;45233;-87
2022/07/20 08:13:35;;;;;;;;;27.00;22.00;;;;;23.87;100.00;100102.25;6300734;22;46092;-87
2022/07/20 08:16:01;;;;;;;;;23.33;19.00;;;;;24.09;100.00;100110.75;6299529;22;45260;-88
2022/07/20 08:18:26;;;;;;;;;20.00;18.67;;;;;24.29;100.00;100101.41;6300563;22;45522;-88
2022/07/20 08:20:52;;;;;;;;;22.00;19.00;;;;;24.48;100.00;100114.38;6301565;22;45339;-87
2022/07/20 08:23:17;;;;;;;;;20.00;20.00;;;;;24.59;100.00;100157.06;6299554;22;45428;-87
2022/07/20 08:25:44;;;;;;;;;18.00;18.00;;;;;24.68;100.00;100161.34;6300748;22;51099;-87
2022/07/20 08:28:12;;;;;;;;;17.67;17.00;;;;;24.75;100.00;100189.78;6301261;22;45380;-89
2022/07/20 08:30:42;;;;;;;;;20.67;19.67;;;;;24.81;100.00;100212.94;6299906;22;45505;-91
2022/07/20 08:33:08;;;;;;;;;21.00;20.00;;;;;24.88;100.00;100186.81;6299015;22;48233;-93
2022/07/20 08:35:34;;;;;;;;;20.00;19.00;;;;;24.95;100.00;100155.34;6296201;22;45734;-91
2022/07/20 08:37:59;;;;;;;;;19.00;19.00;;;;;25.00;100.00;100167.75;6297909;22;45495;-91
2022/07/20 08:40:27;;;;;;;;;19.00;18.00;;;;;25.10;100.00;100180.97;6297672;22;45323;-92
2022/07/20 08:42:52;;;;;;;;;22.00;19.00;;;;;25.18;100.00;100202.25;6297206;22;46469;-92
2022/07/20 08:45:18;;;;;;;;;18.00;18.00;;;;;25.18;100.00;100226.41;6297226;22;45343;-92
2022/07/20 08:47:44;;;;;;;;;18.00;13.00;;;;;25.19;100.00;100218.34;6298726;22;45922;-92
2022/07/20 08:50:10;;;;;;;;;15.33;15.00;;;;;25.13;100.00;100265.94;6296479;22;45526;-91
2022/07/20 08:52:35;;;;;;;;;15.33;15.00;;;;;25.05;100.00;100263.44;6294030;22;46157;-90
2022/07/20 08:55:01;;;;;;;;;18.33;14.00;;;;;24.97;100.00;100252.84;6295330;22;45386;-91
2022/07/20 08:57:26;;;;;;;;;16.67;15.67;;;;;24.88;100.00;100291.50;6299112;22;45453;-91
2022/07/20 08:59:52;;;;;;;;;17.67;13.33;;;;;24.81;100.00;100277.34;6299452;22;45307;-91
2022/07/20 09:02:17;;;;;;;;;13.00;12.00;;;;;24.76;100.00;100279.25;6301661;22;46137;-93
2022/07/20 09:04:58;;;;;;;;;15.33;13.33;;;;;24.75;100.00;100285.50;6298676;22;45942;-90
2022/07/20 09:07:42;;;;;;;;;12.00;12.00;;;;;24.77;100.00;100238.94;6297985;22;45322;-91
2022/07/20 09:10:11;;;;;;;;;14.33;11.33;;;;;24.93;100.00;100241.28;6301154;22;45578;-94
2022/07/20 09:12:53;;;;;;;;;12.33;10.67;;;;;25.17;100.00;100254.19;6299155;22;49458;-92
2022/07/20 09:15:38;;;;;;;;;12.33;11.67;;;;;25.32;100.00;100269.94;6298423;22;45331;-91
2022/07/20 09:18:07;;;;;;;;;12.00;9.33;;;;;25.46;100.00;100271.41;6301276;22;45265;-91
2022/07/20 09:20:35;;;;;;;;;10.00;10.00;;;;;25.64;100.00;100280.78;6298624;22;45278;-90
2022/07/20 09:23:10;;;;;;;;;13.67;11.00;;;;;25.86;100.00;100260.59;6300005;22;45316;-91
2022/07/20 09:25:36;;;;;;;;;13.33;10.33;;;;;26.07;100.00;100277.94;6297255;22;45305;-90
2022/07/20 09:28:01;;;;;;;;;12.33;12.33;;;;;26.25;100.00;100280.16;6299735;22;45318;-92
2022/07/20 09:30:27;;;;;;;;;8.00;8.00;;;;;26.35;100.00;100287.03;6298022;22;45370;-91
2022/07/20 09:33:03;;;;;;;;;12.33;12.00;;;;;26.48;100.00;100292.09;6300101;22;46184;-90
2022/07/20 09:35:37;;;;;;;;;10.33;10.00;;;;;26.59;100.00;100302.56;6299819;22;45444;-90
2022/07/20 09:38:05;;;;;;;;;9.00;6.67;;;;;26.65;100.00;100297.00;6299857;22;45380;-91
2022/07/20 09:40:45;;;;;;;;;5.67;4.00;;;;;26.62;100.00;100329.41;6270412;22;45252;-90
2022/07/20 09:43:29;;;;;;;;;6.67;6.00;;;;;26.46;100.00;100337.91;6299544;22;46141;-88
2022/07/20 09:45:55;;;;;;;;;7.67;7.67;;;;;26.29;100.00;100338.31;6298611;22;45661;-88
2022/07/20 09:48:24;;;;;;;;;6.67;6.67;;;;;26.11;100.00;100328.03;6298154;22;45400;-90
2022/07/20 09:50:50;;;;;;;;;6.00;6.00;;;;;26.02;100.00;100349.78;6300406;22;45402;-89
2022/07/20 09:53:16;;;;;;;;;7.33;5.00;;;;;25.91;100.00;100370.66;6295774;22;48515;-88
2022/07/20 09:55:42;;;;;;;;;6.00;6.00;;;;;25.77;100.00;100367.41;6298392;22;45657;-88
2022/07/20 09:58:09;;;;;;;;;6.00;4.00;;;;;25.73;100.00;100362.13;6297560;22;45451;-89
2022/07/20 10:00:35;;;;;;;;;5.33;5.00;;;;;25.64;100.00;100369.47;6299699;22;45431;-89
2022/07/20 10:03:02;;;;;;;;;7.00;7.00;;;;;25.59;100.00;100367.84;6297313;22;48069;-89
2022/07/20 10:05:34;;;;;;;;;8.67;5.33;;;;;25.51;100.00;100362.66;6298307;22;45466;-88
2022/07/20 10:08:02;;;;;;;;;7.67;7.00;;;;;25.43;100.00;100357.44;6301545;22;45363;-88
2022/07/20 10:10:28;;;;;;;;;9.00;5.00;;;;;25.40;100.00;100362.88;6298286;22;45364;-88
2022/07/20 10:12:55;;;;;;;;;8.00;7.00;;;;;25.36;100.00;100350.47;6299772;22;45859;-89
2022/07/20 10:15:28;;;;;;;;;8.00;7.00;;;;;25.30;100.00;100352.38;6301069;22;45449;-88
2022/07/20 10:17:54;;;;;;;;;7.00;7.00;;;;;25.27;100.00;100351.53;6300863;22;45419;-88
2022/07/20 10:20:34;;;;;;;;;10.00;7.00;;;;;25.33;100.00;100348.72;6300594;22;45259;-88
2022/07/20 10:23:15;;;;;;;;;10.00;7.33;;;;;25.38;100.00;100335.19;6297228;22;47483;-88
2022/07/20 10:25:45;;;;;;;;;7.33;6.67;;;;;25.43;100.00;100355.66;6302072;22;45338;-88
2022/07/20 10:28:32;;;;;;;;;10.00;6.67;;;;;25.54;100.00;100357.16;6303236;22;45570;-86
2022/07/20 10:31:04;;;;;;;;;8.67;7.33;;;;;25.70;100.00;100346.94;6302810;22;45248;-93
2022/07/20 10:33:31;;;;;;;;;7.33;6.00;;;;;25.94;100.00;100351.78;6299716;22;47060;-90
2022/07/20 10:38:51;;;;;;;;;21.00;20.67;;;;;26.09;100.00;100335.25;6299782;22;45516;-91
2022/07/20 10:41:31;;;;;;;;;18.67;17.67;;;;;26.09;100.00;100359.47;6299228;22;45680;-89
2022/07/20 10:44:21;;;;;;;;;11.33;9.00;;;;;26.07;100.00;100395.38;6300653;22;45303;-89
2022/07/20 10:46:48;;;;;;;;;10.33;9.33;;;;;26.00;100.00;100384.75;6302097;22;45323;-88
2022/07/20 10:49:14;;;;;;;;;15.67;14.00;;;;;25.98;100.00;100391.09;6299229;22;45383;-88
2022/07/20 10:51:40;;;;;;;;;13.00;10.33;;;;;25.90;100.00;100391.28;6302577;22;45371;-88
2022/07/20 10:54:30;;;;;;;;;10.00;10.00;;;;;25.83;100.00;100389.69;6297670;22;46568;-88
2022/07/20 10:56:57;;;;;;;;;7.67;7.00;;;;;25.73;100.00;100383.63;6301255;22;45315;-87
2022/07/20 10:59:22;;;;;;;;;8.00;8.00;;;;;25.66;100.00;100393.63;6300924;22;45382;-87
2022/07/20 11:01:47;;;;;;;;;7.33;7.00;;;;;25.59;100.00;100390.19;6301872;22;45376;-87
2022/07/20 11:04:15;;;;;;;;;8.00;6.67;;;;;25.55;100.00;100400.16;6300959;22;46437;-87
2022/07/20 11:06:40;;;;;;;;;7.00;7.00;;;;;25.58;100.00;100391.13;6301938;22;45189;-85
2022/07/20 11:09:06;;;;;;;;;8.33;7.00;;;;;25.64;100.00;100384.72;6300484;22;45711;-87
2022/07/20 11:11:34;;;;;;;;;8.67;6.00;;;;;25.72;100.00;100396.16;6302745;22;45232;-94
2022/07/20 11:14:01;;;;;;;;;8.00;6.00;;;;;25.78;100.00;100408.59;6298045;22;47113;-86
2022/07/20 11:16:27;;;;;;;;;9.00;8.67;;;;;25.81;100.00;100408.53;6298636;22;45615;-87
2022/07/20 11:18:54;;;;;;;;;6.00;6.00;;;;;25.79;100.00;100415.75;6300275;22;45326;-86
2022/07/20 11:21:33;;;;;;;;;7.67;6.00;;;;;25.80;100.00;100406.75;6301899;22;45347;-86
2022/07/20 11:23:58;;;;;;;;;6.67;6.67;;;;;25.78;100.00;100396.06;6299848;22;45342;-85
2022/07/20 11:26:24;;;;;;;;;7.67;6.67;;;;;25.75;100.00;100401.50;6301463;22;45363;-85
2022/07/20 11:28:55;;;;;;;;;5.67;5.67;;;;;25.74;100.00;100394.38;6300888;22;45412;-85
2022/07/20 11:31:27;;;;;;;;;6.67;6.67;;;;;25.72;100.00;100398.84;6302008;22;45476;-85
2022/07/20 11:33:53;;;;;;;;;7.00;5.00;;;;;25.69;100.00;100414.19;6300826;22;46499;-85
2022/07/20 11:36:23;;;;;;;;;5.67;5.33;;;;;25.67;100.00;100390.91;6302600;22;45237;-85
2022/07/20 11:38:51;;;;;;;;;7.00;6.00;;;;;25.67;100.00;100392.69;6300144;22;45256;-84
2022/07/20 11:41:20;;;;;;;;;7.00;7.00;;;;;25.65;100.00;100400.81;6301870;22;45280;-84
2022/07/20 11:43:45;;;;;;;;;10.67;7.00;;;;;25.63;100.00;100391.00;6300998;22;45471;-85
2022/07/20 11:46:17;;;;;;;;;7.33;7.33;;;;;25.63;100.00;100375.78;6301324;22;59712;-84
2022/07/20 11:48:44;;;;;;;;;7.67;7.67;;;;;25.62;100.00;100389.25;6299501;22;45333;-85
2022/07/20 11:51:11;;;;;;;;;6.67;6.67;;;;;25.62;100.00;100390.13;6301458;22;45288;-84
2022/07/20 11:53:39;;;;;;;;;7.00;7.00;;;;;25.63;100.00;100402.66;6292450;22;47190;-84
2022/07/20 11:56:19;;;;;;;;;9.67;8.67;;;;;25.80;100.00;100398.69;6296412;22;45780;-84
2022/07/20 11:58:47;;;;;;;;;7.67;7.00;;;;;25.97;100.00;100398.31;6298548;22;45319;-84
2022/07/20 12:01:18;;;;;;;;;10.33;8.33;;;;;26.23;100.00;100366.28;6301239;22;45400;-84
2022/07/20 12:03:51;;;;;;;;;10.00;9.33;;;;;26.47;100.00;100366.56;6299993;22;45351;-85
2022/07/20 12:06:17;;;;;;;;;8.33;8.00;;;;;26.59;100.00;100373.44;6301046;22;45375;-85
2022/07/20 12:08:43;;;;;;;;;6.33;6.33;;;;;26.74;100.00;100381.97;6298025;22;45318;-84
2022/07/20 12:11:10;;;;;;;;;9.00;7.00;;;;;26.87;100.00;100388.78;6300880;22;45460;-84
2022/07/20 12:13:48;;;;;;;;;8.00;8.00;;;;;27.36;100.00;100392.78;6301431;22;46261;-84
2022/07/20 12:16:13;;;;;;;;;7.00;6.33;;;;;28.58;100.00;100319.56;6301689;22;45261;-84
2022/07/20 12:18:47;;;;;;;;;6.67;6.67;;;;;29.22;100.00;100349.56;6300388;22;45359;-84
2022/07/20 12:21:17;;;;;;;;;7.00;6.00;;;;;29.43;100.00;100419.94;6300700;22;45264;-85
2022/07/20 12:23:45;;;;;;;;;9.67;7.00;;;;;29.37;100.00;100430.97;6297890;22;45471;-84
2022/07/20 12:26:20;;;;;;;;;10.00;8.00;;;;;29.21;100.00;100450.47;6301760;22;45287;-84
2022/07/20 12:28:46;;;;;;;;;8.33;8.33;;;;;29.34;100.00;100450.88;6297696;22;45847;-85
2022/07/20 12:31:13;;;;;;;;;8.67;8.67;;;;;29.72;100.00;100460.28;6300743;22;45352;-85
2022/07/20 12:33:59;;;;;;;;;9.67;9.00;;;;;29.96;100.00;100461.09;6300168;22;46179;-84
2022/07/20 12:36:38;;;;;;;;;9.00;8.00;;;;;29.91;100.00;100473.94;6300652;22;45479;-85
2022/07/20 12:39:08;;;;;;;;;12.00;9.00;;;;;29.70;100.00;100486.47;6299693;22;45272;-84
2022/07/20 12:41:33;;;;;;;;;11.00;8.00;;;;;29.40;100.00;100483.09;6300568;22;45313;-84
2022/07/20 12:43:59;;;;;;;;;13.00;10.00;;;;;29.11;100.00;100482.38;6300399;22;45898;-85
2022/07/20 12:46:25;;;;;;;;;9.67;7.33;;;;;28.97;100.00;100466.63;6301612;22;45324;-85
2022/07/20 12:48:50;;;;;;;;;13.33;10.67;;;;;29.17;100.00;100465.91;6297257;22;45426;-84
2022/07/20 12:51:17;;;;;;;;;9.00;8.00;;;;;29.66;100.00;100454.13;6298970;22;45221;-85
2022/07/20 12:53:44;;;;;;;;;9.00;9.00;;;;;30.01;100.00;100463.63;6298430;22;46438;-85
2022/07/20 12:56:10;;;;;;;;;8.33;8.33;;;;;30.77;100.00;100454.09;6300981;22;45323;-85
2022/07/20 12:58:36;;;;;;;;;8.00;7.67;;;;;32.37;100.00;100429.44;6300961;22;45280;-85
2022/07/20 13:01:03;;;;;;;;;9.67;9.00;;;;;35.21;100.00;100424.22;6300451;22;45383;-85
2022/07/20 13:03:28;;;;;;;;;11.00;7.33;;;;;37.49;100.00;100454.47;6299728;22;45659;-85
2022/07/20 13:05:53;;;;;;;;;8.00;8.00;;;;;39.04;97.76;100522.25;6299961;22;45328;-85
2022/07/20 13:08:20;;;;;;;;;9.00;8.00;;;;;41.30;92.23;101089.84;6300041;22;45334;-85
2022/07/20 13:10:46;;;;;;;;;8.00;8.00;;;;;43.62;87.13;101209.38;6300721;22;45632;-85
2022/07/20 13:13:12;;;;;;;;;7.00;7.00;;;;;44.66;80.35;101314.41;6300276;22;46564;-86
2022/07/20 13:15:37;;;;;;;;;10.00;8.67;;;;;46.05;76.04;101379.97;6300924;22;45326;-87
2022/07/20 13:18:04;;;;;;;;;11.00;9.00;;;;;46.40;68.86;101432.97;6297852;22;45335;-86
2022/07/20 13:20:30;;;;;;;;;8.33;7.67;;;;;45.51;64.74;101456.19;6298976;22;45633;-86